createdAt,value
2017-09-01T00:02:10.192Z,99.90
2017-09-01T00:04:37.653Z,99.50
2017-09-01T00:07:05.127Z,99.50
2017-09-01T00:09:32.623Z,99.40
2017-09-01T00:12:00.179Z,99.70
2017-09-01T00:14:27.639Z,99.70
2017-09-01T00:16:55.125Z,99.80
2017-09-01T00:19:22.610Z,99.80
2017-09-01T00:21:50.063Z,99.90
2017-09-01T00:24:17.565Z,99.90
2017-09-01T00:26:45.034Z,99.90
2017-09-01T00:29:13.359Z,99.90
2017-09-01T00:31:40.849Z,99.90
2017-09-01T00:34:08.311Z,99.90
2017-09-01T00:36:35.790Z,99.90
2017-09-01T00:39:03.251Z,99.80
2017-09-01T00:41:30.731Z,99.70
2017-09-01T00:43:58.207Z,99.60
2017-09-01T00:46:25.682Z,99.80
2017-09-01T00:48:53.150Z,99.90
2017-09-01T00:51:20.624Z,99.80
2017-09-01T00:53:49.078Z,99.50
2017-09-01T00:56:16.540Z,99.70
2017-09-01T00:58:44.043Z,99.60
2017-09-01T01:01:11.511Z,99.40
2017-09-01T01:03:38.978Z,99.80
2017-09-01T01:06:06.473Z,99.90
2017-09-01T01:08:33.927Z,99.90
2017-09-01T01:11:01.403Z,99.90
2017-09-01T01:13:28.862Z,99.90
2017-09-01T01:15:56.338Z,99.90
2017-09-01T01:18:23.807Z,99.90
2017-09-01T01:20:51.286Z,99.90
2017-09-01T01:23:18.766Z,99.90
2017-09-01T01:25:46.243Z,99.90
2017-09-01T01:28:13.714Z,99.90
2017-09-01T01:30:41.168Z,99.90
2017-09-01T01:33:08.642Z,99.90
2017-09-01T01:35:36.110Z,99.90
2017-09-01T01:38:03.570Z,99.90
2017-09-01T01:40:31.042Z,99.90
2017-09-01T01:42:58.522Z,99.90
2017-09-01T01:45:26.008Z,99.90
2017-09-01T01:47:53.483Z,99.90
2017-09-01T01:50:20.990Z,99.90
2017-09-01T01:52:48.547Z,99.90
2017-09-01T01:55:16.106Z,99.90
2017-09-01T01:57:43.574Z,99.90
2017-09-01T02:00:11.053Z,99.90
2017-09-01T02:02:38.509Z,99.90
2017-09-01T02:05:05.991Z,99.90
2017-09-01T02:07:33.461Z,99.90
2017-09-01T02:10:00.922Z,99.90
2017-09-01T02:12:28.389Z,99.90
2017-09-01T02:14:56.899Z,99.90
2017-09-01T02:17:24.363Z,99.90
2017-09-01T02:19:51.831Z,99.90
2017-09-01T02:22:19.306Z,99.90
2017-09-01T02:24:46.808Z,99.90
2017-09-01T02:27:14.277Z,99.90
2017-09-01T02:29:41.754Z,99.90
2017-09-01T02:32:09.214Z,99.90
2017-09-01T02:34:36.680Z,99.90
2017-09-01T02:37:04.155Z,99.90
2017-09-01T02:39:32.419Z,99.90
2017-09-01T02:41:59.890Z,99.90
2017-09-01T02:44:27.346Z,99.90
2017-09-01T02:46:54.836Z,99.90
2017-09-01T02:49:22.295Z,99.90
2017-09-01T02:51:49.771Z,99.90
2017-09-01T02:54:17.235Z,99.90
2017-09-01T02:56:44.716Z,99.90
2017-09-01T02:59:12.171Z,99.90
2017-09-01T03:01:39.647Z,99.90
2017-09-01T03:04:07.133Z,99.90
2017-09-01T03:06:34.743Z,99.90
2017-09-01T03:09:02.219Z,99.90
2017-09-01T03:11:29.706Z,99.90
2017-09-01T03:13:57.164Z,99.90
2017-09-01T03:16:24.634Z,99.90
2017-09-01T03:18:52.098Z,99.90
2017-09-01T03:21:19.578Z,99.90
2017-09-01T03:23:47.038Z,99.90
2017-09-01T03:26:14.514Z,99.90
2017-09-01T03:28:41.979Z,99.90
2017-09-01T03:31:09.444Z,99.90
2017-09-01T03:33:36.914Z,99.90
2017-09-01T03:36:04.382Z,99.90
2017-09-01T03:38:31.839Z,99.90
2017-09-01T03:40:59.315Z,99.90
2017-09-01T03:43:26.798Z,99.90
2017-09-01T03:45:54.263Z,99.90
2017-09-01T03:48:21.746Z,99.90
2017-09-01T03:50:49.222Z,99.90
2017-09-01T03:53:16.691Z,99.90
2017-09-01T03:55:44.159Z,99.90
2017-09-01T03:58:11.635Z,99.90
2017-09-01T04:00:39.104Z,99.90
2017-09-01T04:03:06.579Z,99.90
2017-09-01T04:05:34.043Z,99.90
2017-09-01T04:08:01.525Z,99.90
2017-09-01T04:10:28.983Z,99.90
2017-09-01T04:12:56.455Z,99.90
2017-09-01T04:15:23.927Z,99.90
2017-09-01T04:17:51.415Z,99.90
2017-09-01T04:20:18.895Z,99.90
2017-09-01T04:22:46.355Z,99.90
2017-09-01T04:25:13.831Z,99.90
2017-09-01T04:27:41.296Z,99.90
2017-09-01T04:30:08.775Z,99.90
2017-09-01T04:32:36.234Z,99.90
2017-09-01T04:35:03.832Z,99.90
2017-09-01T04:37:31.292Z,99.90
2017-09-01T04:39:58.742Z,99.90
2017-09-01T04:42:26.231Z,99.90
2017-09-01T04:44:53.686Z,99.90
2017-09-01T04:47:21.176Z,99.90
2017-09-01T04:49:48.635Z,99.90
2017-09-01T04:52:16.093Z,99.90
2017-09-01T04:54:43.586Z,99.90
2017-09-01T04:57:11.035Z,99.90
2017-09-01T04:59:38.508Z,99.90
2017-09-01T05:02:05.968Z,99.90
2017-09-01T05:04:33.452Z,99.90
2017-09-01T05:07:00.915Z,99.90
2017-09-01T05:09:28.376Z,99.90
2017-09-01T05:11:55.847Z,99.90
2017-09-01T05:14:24.086Z,99.90
2017-09-01T05:16:51.555Z,99.90
2017-09-01T05:19:19.038Z,99.90
2017-09-01T05:21:46.507Z,99.90
2017-09-01T05:24:13.993Z,99.90
2017-09-01T05:26:41.471Z,99.90
2017-09-01T05:29:08.943Z,99.90
2017-09-01T05:31:36.409Z,99.90
2017-09-01T05:34:03.905Z,99.90
2017-09-01T05:36:31.374Z,99.90
2017-09-01T05:38:58.846Z,99.90
2017-09-01T05:41:26.307Z,99.90
2017-09-01T05:43:53.832Z,99.90
2017-09-01T05:46:21.330Z,99.90
2017-09-01T05:48:48.804Z,99.90
2017-09-01T05:51:16.306Z,99.90
2017-09-01T05:53:43.771Z,99.90
2017-09-01T05:56:11.253Z,99.90
2017-09-01T05:58:38.710Z,99.90
2017-09-01T06:01:06.184Z,99.90
2017-09-01T06:03:33.688Z,99.90
2017-09-01T06:06:01.151Z,99.90
2017-09-01T06:08:28.638Z,99.90
2017-09-01T06:10:56.092Z,99.90
2017-09-01T06:13:23.575Z,99.90
2017-09-01T06:15:51.058Z,99.90
2017-09-01T06:18:18.512Z,99.90
2017-09-01T06:20:45.999Z,99.90
2017-09-01T06:23:13.458Z,99.90
2017-09-01T06:25:40.924Z,99.90
2017-09-01T06:28:08.398Z,99.90
2017-09-01T06:30:35.871Z,99.90
2017-09-01T06:33:04.111Z,99.90
2017-09-01T06:35:31.584Z,99.90
2017-09-01T06:37:59.062Z,99.90
2017-09-01T06:40:26.523Z,99.90
2017-09-01T06:42:54.027Z,99.90
2017-09-01T06:45:21.496Z,99.90
2017-09-01T06:47:48.975Z,99.90
2017-09-01T06:50:16.442Z,98.80
2017-09-01T06:52:43.890Z,98.80
2017-09-01T06:55:11.363Z,99.00
2017-09-01T06:57:38.825Z,98.30
2017-09-01T07:00:06.283Z,97.70
2017-09-01T07:02:33.762Z,98.40
2017-09-01T07:05:01.218Z,98.00
2017-09-01T07:07:28.696Z,97.20
2017-09-01T07:09:56.159Z,97.70
2017-09-01T07:12:23.638Z,97.40
2017-09-01T07:14:51.104Z,97.20
2017-09-01T07:17:18.580Z,97.70
2017-09-01T07:19:46.057Z,97.70
2017-09-01T07:22:13.518Z,97.10
2017-09-01T07:24:40.999Z,96.40
2017-09-01T07:27:08.453Z,97.00
2017-09-01T07:29:35.919Z,97.10
2017-09-01T07:32:03.390Z,96.80
2017-09-01T07:34:30.851Z,96.60
2017-09-01T07:36:58.330Z,96.80
2017-09-01T07:39:25.791Z,96.70
2017-09-01T07:41:53.284Z,96.00
2017-09-01T07:44:20.754Z,96.20
2017-09-01T07:46:48.215Z,95.90
2017-09-01T07:49:15.698Z,95.90
2017-09-01T07:51:43.167Z,95.20
2017-09-01T07:54:10.648Z,95.00
2017-09-01T07:56:38.108Z,94.90
2017-09-01T07:59:05.579Z,94.40
2017-09-01T08:01:33.062Z,95.00
2017-09-01T08:04:00.536Z,94.90
2017-09-01T08:06:28.027Z,95.00
2017-09-01T08:08:55.474Z,95.10
2017-09-01T08:11:22.935Z,94.90
2017-09-01T08:13:50.411Z,94.70
2017-09-01T08:16:17.871Z,94.60
2017-09-01T08:18:45.360Z,94.40
2017-09-01T08:21:12.833Z,94.30
2017-09-01T08:23:40.291Z,93.60
2017-09-01T08:26:07.767Z,92.90
2017-09-01T08:28:35.235Z,93.20
2017-09-01T08:31:02.708Z,92.80
2017-09-01T08:33:30.172Z,92.90
2017-09-01T08:35:57.665Z,93.10
2017-09-01T08:38:25.122Z,92.00
2017-09-01T08:40:53.371Z,91.20
2017-09-01T08:43:20.854Z,90.80
2017-09-01T08:45:48.338Z,90.30
2017-09-01T08:48:15.795Z,90.10
2017-09-01T08:50:43.288Z,90.50
2017-09-01T08:53:10.747Z,90.50
2017-09-01T08:55:38.232Z,90.80
2017-09-01T08:58:05.711Z,90.40
2017-09-01T09:00:33.196Z,89.70
2017-09-01T09:03:00.663Z,87.50
2017-09-01T09:05:28.138Z,87.50
2017-09-01T09:07:55.600Z,87.30
2017-09-01T09:10:23.065Z,87.50
2017-09-01T09:12:50.533Z,88.90
2017-09-01T09:15:17.982Z,88.80
2017-09-01T09:17:45.467Z,89.90
2017-09-01T09:20:12.950Z,90.10
2017-09-01T09:22:40.422Z,88.30
2017-09-01T09:25:07.900Z,88.10
2017-09-01T09:27:35.379Z,87.60
2017-09-01T09:30:02.855Z,87.60
2017-09-01T09:32:30.315Z,83.90
2017-09-01T09:34:57.804Z,84.80
2017-09-01T09:37:25.263Z,83.50
2017-09-01T09:39:52.724Z,81.60
2017-09-01T09:42:20.207Z,81.70
2017-09-01T09:44:47.666Z,80.10
2017-09-01T09:47:15.131Z,80.80
2017-09-01T09:49:42.627Z,80.60
2017-09-01T09:52:10.091Z,79.40
2017-09-01T09:54:37.581Z,78.40
2017-09-01T09:57:05.034Z,76.00
2017-09-01T09:59:32.499Z,72.60
2017-09-01T10:01:59.952Z,68.90
2017-09-01T10:04:27.437Z,65.30
2017-09-01T10:06:55.024Z,62.30
2017-09-01T10:09:22.495Z,59.20
2017-09-01T10:11:49.954Z,55.60
2017-09-01T10:14:17.418Z,55.80
2017-09-01T10:16:44.899Z,54.20
2017-09-01T10:19:12.364Z,52.50
2017-09-01T10:21:39.822Z,54.70
2017-09-01T10:24:07.292Z,55.70
2017-09-01T10:26:34.746Z,58.00
2017-09-01T10:29:02.216Z,56.00
2017-09-01T10:31:29.689Z,53.90
2017-09-01T10:33:57.146Z,49.60
2017-09-01T10:36:24.618Z,45.60
2017-09-01T10:38:52.090Z,44.30
2017-09-01T10:41:19.554Z,43.20
2017-09-01T10:43:47.030Z,43.60
2017-09-01T10:46:14.508Z,44.70
2017-09-01T10:48:53.587Z,45.10
2017-09-01T10:54:36.903Z,50.90
2017-09-01T11:00:06.060Z,52.20
2017-09-01T11:02:33.536Z,57.00
2017-09-01T11:05:01.751Z,55.30
2017-09-01T11:07:29.231Z,55.80
2017-09-01T11:09:56.683Z,53.90
2017-09-01T11:12:24.147Z,49.50
2017-09-01T11:14:51.624Z,48.80
2017-09-01T11:17:19.093Z,48.30
2017-09-01T11:22:53.836Z,48.40
2017-09-01T11:25:22.076Z,47.10
2017-09-01T11:27:49.538Z,47.00
2017-09-01T11:30:17.066Z,44.10
2017-09-01T11:32:44.562Z,43.00
2017-09-01T11:35:12.025Z,43.30
2017-09-01T11:37:39.495Z,41.20
2017-09-01T11:40:06.958Z,42.10
2017-09-01T11:42:34.433Z,45.90
2017-09-01T11:45:01.899Z,50.00
2017-09-01T11:47:29.388Z,54.40
2017-09-01T11:49:56.831Z,55.50
2017-09-01T11:52:24.302Z,52.50
2017-09-01T11:54:51.755Z,50.00
2017-09-01T11:57:19.224Z,46.80
2017-09-01T11:59:46.691Z,46.40
2017-09-01T12:02:14.160Z,44.80
2017-09-01T12:04:41.639Z,42.20
2017-09-01T12:07:09.100Z,40.40
2017-09-01T12:09:36.576Z,41.00
2017-09-01T12:12:04.050Z,38.50
2017-09-01T12:14:31.814Z,38.40
2017-09-01T12:16:59.299Z,38.60
2017-09-01T12:19:26.758Z,38.50
2017-09-01T12:21:54.231Z,38.40
2017-09-01T12:24:21.727Z,39.30
2017-09-01T12:26:49.190Z,38.20
2017-09-01T12:29:16.652Z,40.40
2017-09-01T12:31:44.111Z,40.40
2017-09-01T12:34:11.579Z,41.40
2017-09-01T12:36:39.039Z,41.40
2017-09-01T12:39:06.499Z,40.10
2017-09-01T12:41:33.983Z,39.00
2017-09-01T12:44:01.449Z,39.60
2017-09-01T12:46:28.933Z,38.90
2017-09-01T12:48:56.387Z,40.90
2017-09-01T12:51:23.861Z,44.30
2017-09-01T12:53:51.328Z,43.50
2017-09-01T12:56:18.801Z,44.00
2017-09-01T12:58:46.262Z,44.00
2017-09-01T13:01:13.740Z,43.80
2017-09-01T13:03:41.218Z,42.80
2017-09-01T13:06:08.701Z,42.40
2017-09-01T13:08:36.167Z,40.50
2017-09-01T13:11:03.626Z,42.60
2017-09-01T13:13:31.096Z,44.40
2017-09-01T13:15:58.564Z,41.50
2017-09-01T13:18:26.803Z,41.80
2017-09-01T13:20:54.286Z,41.70
2017-09-01T13:23:21.734Z,44.10
2017-09-01T13:25:49.220Z,44.20
2017-09-01T13:28:16.707Z,43.70
2017-09-01T13:30:44.175Z,45.40
2017-09-01T13:33:11.636Z,45.60
2017-09-01T13:35:39.095Z,47.10
2017-09-01T13:38:06.562Z,48.00
2017-09-01T13:40:34.034Z,48.50
2017-09-01T13:43:01.496Z,49.20
2017-09-01T13:45:29.032Z,49.40
2017-09-01T13:47:56.510Z,48.80
2017-09-01T13:50:24.041Z,47.60
2017-09-01T13:52:51.485Z,48.80
2017-09-01T13:55:18.960Z,49.10
2017-09-01T13:57:46.426Z,49.20
2017-09-01T14:00:13.891Z,48.50
2017-09-01T14:02:41.397Z,49.20
2017-09-01T14:05:08.956Z,49.20
2017-09-01T14:07:36.515Z,49.70
2017-09-01T14:10:04.073Z,48.60
2017-09-01T14:12:31.563Z,47.50
2017-09-01T14:14:59.015Z,47.70
2017-09-01T14:17:26.493Z,47.50
2017-09-01T14:19:53.943Z,47.30
2017-09-01T14:22:21.416Z,47.90
2017-09-01T14:24:48.899Z,47.30
2017-09-01T14:27:16.358Z,48.70
2017-09-01T14:29:43.830Z,48.50
2017-09-01T14:32:11.298Z,48.40
2017-09-01T14:34:38.797Z,49.20
2017-09-01T14:37:06.287Z,49.10
2017-09-01T14:39:33.752Z,50.10
2017-09-01T14:42:01.224Z,49.40
2017-09-01T14:44:28.696Z,50.30
2017-09-01T14:46:56.163Z,49.20
2017-09-01T14:49:23.618Z,49.80
2017-09-01T14:51:51.087Z,48.70
2017-09-01T14:54:18.549Z,48.80
2017-09-01T14:56:46.011Z,48.90
2017-09-01T14:59:13.504Z,48.90
2017-09-01T15:01:40.966Z,49.30
2017-09-01T15:04:08.423Z,50.10
2017-09-01T15:06:35.903Z,49.30
2017-09-01T15:09:03.354Z,50.80
2017-09-01T15:11:30.839Z,52.30
2017-09-01T15:13:58.319Z,52.70
2017-09-01T15:16:26.559Z,53.00
2017-09-01T15:18:54.049Z,53.00
2017-09-01T15:21:21.532Z,53.60
2017-09-01T15:23:48.991Z,53.30
2017-09-01T15:26:16.479Z,53.90
2017-09-01T15:28:43.945Z,54.30
2017-09-01T15:31:11.415Z,54.80
2017-09-01T15:33:39.021Z,54.90
2017-09-01T15:36:06.474Z,55.50
2017-09-01T15:38:33.950Z,56.00
2017-09-01T15:41:01.435Z,55.40
2017-09-01T15:43:28.907Z,56.00
2017-09-01T15:45:56.364Z,55.80
2017-09-01T15:48:25.364Z,56.30
2017-09-01T15:50:52.912Z,57.10
2017-09-01T15:53:20.383Z,57.40
2017-09-01T15:55:47.843Z,57.70
2017-09-01T15:58:15.339Z,58.90
2017-09-01T16:00:42.808Z,59.70
2017-09-01T16:03:10.275Z,60.40
2017-09-01T16:05:37.758Z,62.00
2017-09-01T16:08:06.010Z,63.00
2017-09-01T16:10:33.468Z,63.00
2017-09-01T16:13:00.943Z,63.00
2017-09-01T16:15:28.403Z,63.20
2017-09-01T16:17:55.867Z,63.70
2017-09-01T16:20:23.343Z,64.30
2017-09-01T16:22:50.807Z,65.00
2017-09-01T16:25:18.287Z,65.30
2017-09-01T16:27:45.749Z,66.20
2017-09-01T16:30:13.215Z,67.00
2017-09-01T16:32:40.696Z,67.60
2017-09-01T16:35:09.007Z,68.90
2017-09-01T16:37:36.471Z,68.80
2017-09-01T16:40:03.951Z,69.80
2017-09-01T16:42:31.402Z,70.00
2017-09-01T16:44:58.855Z,69.90
2017-09-01T16:47:26.332Z,70.20
2017-09-01T16:49:53.807Z,71.20
2017-09-01T16:52:21.255Z,70.30
2017-09-01T16:54:48.727Z,70.00
2017-09-01T16:57:16.186Z,70.60
2017-09-01T16:59:43.671Z,71.30
2017-09-01T17:02:11.147Z,70.20
2017-09-01T17:04:38.622Z,69.90
2017-09-01T17:07:06.104Z,70.30
2017-09-01T17:09:33.704Z,70.10
2017-09-01T17:12:01.187Z,70.00
2017-09-01T17:14:28.644Z,70.10
2017-09-01T17:16:56.173Z,71.00
2017-09-01T17:19:23.667Z,71.00
2017-09-01T17:21:51.173Z,72.10
2017-09-01T17:24:18.677Z,72.50
2017-09-01T17:26:46.203Z,72.20
2017-09-01T17:29:13.771Z,72.50
2017-09-01T17:31:41.420Z,72.50
2017-09-01T17:34:10.295Z,72.00
2017-09-01T17:36:37.824Z,69.50
2017-09-01T17:39:05.318Z,69.60
2017-09-01T17:41:32.841Z,70.50
2017-09-01T17:44:00.307Z,70.60
2017-09-01T17:46:27.905Z,71.10
2017-09-01T17:48:55.434Z,72.00
2017-09-01T17:51:22.908Z,72.50
2017-09-01T17:53:51.115Z,73.10
2017-09-01T17:56:19.130Z,74.10
2017-09-01T17:58:46.654Z,75.10
2017-09-01T18:01:14.260Z,75.00
2017-09-01T18:03:42.813Z,75.30
2017-09-01T18:06:10.850Z,76.40
2017-09-01T18:08:39.138Z,77.30
2017-09-01T18:11:07.991Z,77.60
2017-09-01T18:13:35.558Z,78.40
2017-09-01T18:16:03.059Z,78.70
2017-09-01T18:18:30.570Z,77.80
2017-09-01T18:20:58.052Z,78.70
2017-09-01T18:23:25.610Z,77.90
2017-09-01T18:25:53.091Z,77.90
2017-09-01T18:28:20.563Z,77.90
2017-09-01T18:30:48.151Z,77.50
2017-09-01T18:33:15.626Z,79.00
2017-09-01T18:35:43.091Z,80.70
2017-09-01T18:38:10.579Z,80.50
2017-09-01T18:40:38.051Z,80.30
2017-09-01T18:43:06.287Z,81.70
2017-09-01T18:45:33.776Z,81.70
2017-09-01T18:48:02.014Z,83.20
2017-09-01T18:50:29.541Z,83.20
2017-09-01T18:52:57.011Z,83.80
2017-09-01T18:55:24.484Z,85.00
2017-09-01T18:57:51.943Z,86.00
2017-09-01T19:00:19.423Z,86.50
2017-09-01T19:02:46.922Z,86.90
2017-09-01T19:05:14.405Z,84.60
2017-09-01T19:07:41.894Z,84.00
2017-09-01T19:10:09.395Z,85.00
2017-09-01T19:12:36.874Z,84.80
2017-09-01T19:15:04.340Z,84.60
2017-09-01T19:17:31.828Z,84.70
2017-09-01T19:19:59.424Z,85.00
2017-09-01T19:22:26.984Z,85.40
2017-09-01T19:24:54.634Z,84.20
2017-09-01T19:27:22.203Z,84.50
2017-09-01T19:29:49.674Z,84.30
2017-09-01T19:32:17.191Z,83.60
2017-09-01T19:34:44.666Z,83.00
2017-09-01T19:37:12.244Z,82.80
2017-09-01T19:39:39.719Z,84.20
2017-09-01T19:42:07.204Z,82.90
2017-09-01T19:44:34.704Z,82.80
2017-09-01T19:47:02.176Z,83.50
2017-09-01T19:49:29.645Z,83.80
2017-09-01T19:51:57.132Z,83.70
2017-09-01T19:54:24.606Z,83.60
2017-09-01T19:56:52.835Z,85.60
2017-09-01T19:59:20.324Z,85.60
2017-09-01T20:01:47.789Z,85.20
2017-09-01T20:04:16.031Z,85.10
2017-09-01T20:06:43.503Z,85.00
2017-09-01T20:09:10.967Z,85.10
2017-09-01T20:11:38.565Z,86.50
2017-09-01T20:14:06.046Z,86.30
2017-09-01T20:16:33.508Z,86.60
2017-09-01T20:19:00.984Z,87.20
2017-09-01T20:21:28.718Z,86.50
2017-09-01T20:23:56.271Z,87.40
2017-09-01T20:26:23.790Z,87.50
2017-09-01T20:28:51.272Z,87.80
2017-09-01T20:31:18.739Z,87.40
2017-09-01T20:33:46.218Z,87.80
2017-09-01T20:36:13.682Z,88.70
2017-09-01T20:38:41.164Z,88.80
2017-09-01T20:41:08.642Z,89.30
2017-09-01T20:43:36.128Z,89.60
2017-09-01T20:46:03.620Z,89.60
2017-09-01T20:48:31.108Z,89.10
2017-09-01T20:50:58.575Z,89.10
2017-09-01T20:53:26.050Z,89.60
2017-09-01T20:55:53.611Z,90.40
2017-09-01T20:58:21.100Z,90.50
2017-09-01T21:00:48.559Z,91.20
2017-09-01T21:03:16.039Z,91.70
2017-09-01T21:05:43.503Z,91.50
2017-09-01T21:08:10.972Z,91.60
2017-09-01T21:10:38.451Z,91.80
2017-09-01T21:13:05.914Z,91.90
2017-09-01T21:15:33.387Z,92.20
2017-09-01T21:18:00.871Z,92.00
2017-09-01T21:20:28.670Z,92.10
2017-09-01T21:22:56.151Z,92.00
2017-09-01T21:25:23.628Z,92.40
2017-09-01T21:27:51.144Z,92.50
2017-09-01T21:30:18.699Z,92.60
2017-09-01T21:32:46.166Z,92.80
2017-09-01T21:35:13.639Z,93.20
2017-09-01T21:37:41.131Z,93.30
2017-09-01T21:40:08.596Z,93.50
2017-09-01T21:42:36.083Z,93.90
2017-09-01T21:45:03.556Z,94.20
2017-09-01T21:47:31.023Z,94.20
2017-09-01T21:49:58.496Z,94.20
2017-09-01T21:52:25.974Z,94.70
2017-09-01T21:54:53.438Z,94.80
2017-09-01T21:57:20.922Z,95.20
2017-09-01T21:59:48.411Z,95.40
2017-09-01T22:02:15.876Z,95.60
2017-09-01T22:04:43.361Z,95.50
2017-09-01T22:07:10.852Z,95.60
2017-09-01T22:09:38.320Z,95.90
2017-09-01T22:12:05.789Z,96.10
2017-09-01T22:14:33.263Z,96.20
2017-09-01T22:17:00.751Z,96.40
2017-09-01T22:19:28.239Z,96.50
2017-09-01T22:21:55.691Z,96.60
2017-09-01T22:24:23.171Z,96.80
2017-09-01T22:26:50.646Z,97.20
2017-09-01T22:29:18.115Z,97.50
2017-09-01T22:31:45.583Z,97.50
2017-09-01T22:34:13.072Z,97.80
2017-09-01T22:36:40.532Z,97.90
2017-09-01T22:39:08.019Z,98.00
2017-09-01T22:41:35.487Z,98.00
2017-09-01T22:44:02.956Z,97.60
2017-09-01T22:46:30.430Z,97.80
2017-09-01T22:48:57.912Z,98.30
2017-09-01T22:51:25.383Z,97.70
2017-09-01T22:53:52.878Z,97.80
2017-09-01T22:56:20.331Z,97.80
2017-09-01T22:58:47.806Z,97.80
2017-09-01T23:01:16.039Z,97.80
2017-09-01T23:03:43.529Z,97.80
2017-09-01T23:06:11.026Z,98.00
2017-09-01T23:08:38.490Z,98.00
2017-09-01T23:11:05.964Z,98.20
2017-09-01T23:13:33.427Z,98.40
2017-09-01T23:16:00.904Z,98.40
2017-09-01T23:18:28.364Z,98.50
2017-09-01T23:20:55.844Z,98.70
2017-09-01T23:23:23.327Z,98.90
2017-09-01T23:25:50.815Z,98.70
2017-09-01T23:28:18.274Z,98.70
2017-09-01T23:30:45.756Z,98.50
2017-09-01T23:33:13.218Z,98.40
2017-09-01T23:35:40.710Z,98.20
2017-09-01T23:38:08.178Z,97.90
2017-09-01T23:40:35.668Z,97.80
2017-09-01T23:43:03.176Z,97.60
2017-09-01T23:45:30.627Z,97.40
2017-09-01T23:47:58.106Z,97.20
2017-09-01T23:50:25.583Z,97.30
2017-09-01T23:52:53.071Z,97.60
2017-09-01T23:55:20.547Z,98.10
2017-09-01T23:57:48.015Z,97.90
